createdAt,value
2019-05-20T00:06:42.087Z,8.90
2019-05-20T00:09:32.107Z,8.87
2019-05-20T00:12:20.884Z,7.40
2019-05-20T00:15:09.600Z,8.87
2019-05-20T00:17:58.093Z,8.20
2019-05-20T00:21:16.690Z,8.70
2019-05-20T00:24:34.605Z,7.63
2019-05-20T00:29:32.244Z,8.00
2019-05-20T00:40:55.243Z,8.83
2019-05-20T00:43:44.827Z,9.27
2019-05-20T00:46:34.384Z,8.87
2019-05-20T00:49:22.785Z,8.93
2019-05-20T00:52:19.722Z,9.53
2019-05-20T00:55:12.552Z,7.93
2019-05-20T00:58:01.526Z,8.47
2019-05-20T01:00:50.226Z,9.07
2019-05-20T01:03:39.550Z,8.90
2019-05-20T01:06:29.268Z,6.70
2019-05-20T01:09:19.355Z,9.50
2019-05-20T01:12:08.440Z,8.97
2019-05-20T01:14:58.003Z,9.47
2019-05-20T01:17:46.935Z,9.33
2019-05-20T01:20:36.331Z,8.50
2019-05-20T01:23:26.407Z,9.60
2019-05-20T01:26:17.109Z,9.27
2019-05-20T01:29:07.146Z,8.40
2019-05-20T01:31:58.043Z,9.90
2019-05-20T01:34:47.878Z,9.67
2019-05-20T01:37:38.206Z,9.97
2019-05-20T01:40:28.763Z,8.73
2019-05-20T01:43:17.805Z,8.53
2019-05-20T01:46:06.691Z,9.43
2019-05-20T01:48:55.578Z,9.23
2019-05-20T01:51:46.004Z,8.83
2019-05-20T01:54:37.147Z,10.80
2019-05-20T01:57:27.238Z,7.63
2019-05-20T02:00:16.758Z,9.10
2019-05-20T02:03:06.642Z,9.33
2019-05-20T02:05:57.198Z,9.10
2019-05-20T02:08:46.758Z,10.40
2019-05-20T02:11:37.150Z,9.50
2019-05-20T02:14:28.504Z,11.60
2019-05-20T02:17:18.045Z,12.87
2019-05-20T02:20:08.283Z,10.10
2019-05-20T02:23:14.929Z,10.40
2019-05-20T02:26:05.938Z,10.73
2019-05-20T02:28:55.431Z,9.50
2019-05-20T02:31:47.922Z,10.07
2019-05-20T02:34:37.688Z,10.43
2019-05-20T02:37:30.888Z,10.40
2019-05-20T02:40:20.505Z,9.50
2019-05-20T02:43:09.406Z,10.23
2019-05-20T02:45:58.710Z,9.33
2019-05-20T02:48:48.587Z,9.20
2019-05-20T02:51:37.364Z,9.50
2019-05-20T02:54:30.282Z,8.60
2019-05-20T02:57:24.162Z,10.37
2019-05-20T03:00:13.176Z,10.00
2019-05-20T03:03:04.128Z,9.40
2019-05-20T03:05:54.654Z,10.80
2019-05-20T03:08:46.816Z,9.60
2019-05-20T03:11:37.440Z,9.90
2019-05-20T03:17:15.342Z,11.40
2019-05-20T03:20:04.374Z,10.53
2019-05-20T03:22:53.001Z,9.63
2019-05-20T03:25:42.647Z,9.97
2019-05-20T03:28:33.304Z,11.00
2019-05-20T03:31:24.568Z,11.20
2019-05-20T03:34:41.726Z,10.70
2019-05-20T03:44:51.277Z,10.30
2019-05-20T04:27:35.584Z,10.07
2019-05-20T04:54:03.326Z,9.40
2019-05-20T04:56:52.696Z,8.13
2019-05-20T04:59:42.178Z,9.40
2019-05-20T05:02:42.922Z,9.83
2019-05-20T05:09:49.192Z,8.70
2019-05-20T05:12:54.466Z,9.47
2019-05-20T05:20:26.465Z,8.30
2019-05-20T05:26:40.118Z,10.00
2019-05-20T05:40:41.229Z,8.77
2019-05-20T05:47:46.893Z,8.40
2019-05-20T06:35:07.188Z,9.80
2019-05-20T07:05:12.502Z,8.80
2019-05-20T07:33:58.227Z,9.13
2019-05-20T07:44:16.529Z,7.77
2019-05-20T07:50:53.635Z,8.50
2019-05-20T07:53:59.288Z,8.03
2019-05-20T08:34:02.987Z,8.90
2019-05-20T08:36:58.303Z,7.83
2019-05-20T08:39:52.299Z,8.73
2019-05-20T09:53:09.658Z,8.97
2019-05-20T09:56:00.875Z,8.20
2019-05-20T09:58:50.521Z,9.53
2019-05-20T10:01:40.456Z,9.57
2019-05-20T10:04:31.615Z,8.60
2019-05-20T10:07:21.466Z,9.00
2019-05-20T10:10:10.521Z,9.50
2019-05-20T10:17:04.715Z,9.37
2019-05-20T10:34:39.855Z,11.17
2019-05-20T10:41:06.855Z,11.23
2019-05-20T10:43:57.584Z,11.10
2019-05-20T10:46:49.439Z,12.30
2019-05-20T10:49:42.378Z,11.30
2019-05-20T10:52:32.352Z,12.40
2019-05-20T11:01:02.353Z,12.43
2019-05-20T11:03:48.223Z,11.17
2019-05-20T11:06:41.216Z,12.77
2019-05-20T11:09:31.989Z,11.60
2019-05-20T11:12:38.153Z,12.10
2019-05-20T12:33:45.916Z,12.57
2019-05-20T12:36:40.964Z,11.63
2019-05-20T12:39:47.874Z,11.50
2019-05-20T12:46:51.928Z,10.83
2019-05-20T13:27:15.165Z,10.80
2019-05-20T13:30:13.568Z,11.70
2019-05-20T13:33:05.726Z,11.83
2019-05-20T13:36:10.290Z,12.30
2019-05-20T13:39:05.600Z,12.43
2019-05-20T13:42:10.970Z,11.90
2019-05-20T13:45:38.507Z,12.90
2019-05-20T13:48:35.182Z,14.03
2019-05-20T13:51:45.996Z,13.47
2019-05-20T13:55:02.540Z,14.37
2019-05-20T13:57:50.351Z,13.83
2019-05-20T14:00:44.186Z,15.03
2019-05-20T14:03:34.813Z,15.23
2019-05-20T14:06:25.515Z,16.50
2019-05-20T17:20:55.895Z,5.00
2019-05-20T20:20:29.159Z,7.20
